Thunder radar more information blitzortung!


Radar de pluja more information rain snow radar


Visita la nostra xarxa de llocs de meteo:

Template documentation
and downloads

And another site



No particular awareness of the weather is required.    There are no Weather-warnings

Pagina Historial Weather Underground text

Diari Resum Novembre 10, 2017 Unitats:  Tant    Imperial   Mètric
« Previous Dia
SegĂźent Dia »
Diari Setmana Mensual Anual Personalitzada
  Maxima: Minima: Media:
Temperatura: 59 °F /  15.0 °C 38.8 °F /  3.8 °C 50.7 °F /  10.4 °C
Punt de rosada: 41.2 °F /  5.1 °C 29.1 °F /  -1.6 °C 34.9 °F /  1.6 °C
Humitat: 68 % 47 % 55 %
Wind Speed: 6.9 mph /  11.1 km/h - 2.1 mph /  3.4 km/h
RĂ fegues de vent: 7 mph /  11.3 km/h - -
Vent:- - SSE
Pression baro: 30.3 in /  1027.0 hPa 30.2 in /  1023.9 hPa -
Precipitacions: 0 in /  0.0 mm    
Historical Graphs
 
 
Dades de taula per Novembre 10, 2017
Temps Temperatura Punt de rosada Pression baro Vent Wind Speed RĂ fegues de vent Humitat Rainfall Rate (Hourly)
00:04 41.2 °F /  5.1 °C 31.5 °F /  -0.3 °C 30.3 in /  1026.0 hPa Calm     68 % 0 in /  0.0 mm
00:05 39.7 °F /  4.3 °C 30 °F /  -1.1 °C 30.3 in /  1026.0 hPa NNE 1 mph /  1.6 km/h 2 mph /  3.2 km/h 68 % 0 in /  0.0 mm
00:15 39.7 °F /  4.3 °C 30 °F /  -1.1 °C 30.3 in /  1026.0 hPa NNE 2 mph /  3.2 km/h 3 mph /  4.8 km/h 68 % 0 in /  0.0 mm
00:25 39.6 °F /  4.2 °C 29.8 °F /  -1.2 °C 30.3 in /  1024.9 hPa NNE 1 mph /  1.6 km/h 2 mph /  3.2 km/h 68 % 0 in /  0.0 mm
00:35 39.4 °F /  4.1 °C 29.3 °F /  -1.5 °C 30.3 in /  1024.9 hPa NW 1 mph /  1.6 km/h 1 mph /  1.6 km/h 67 % 0 in /  0.0 mm
00:45 39.4 °F /  4.1 °C 29.7 °F /  -1.3 °C 30.3 in /  1026.0 hPa WNW 1 mph /  1.6 km/h 1 mph /  1.6 km/h 68 % 0 in /  0.0 mm
00:55 39.2 °F /  4.0 °C 29.5 °F /  -1.4 °C 30.3 in /  1026.0 hPa NNW 1 mph /  1.6 km/h 2 mph /  3.2 km/h 68 % 0 in /  0.0 mm
01:05 39.4 °F /  4.1 °C 29.7 °F /  -1.3 °C 30.3 in /  1026.0 hPa NNW 1 mph /  1.6 km/h 4 mph /  6.4 km/h 68 % 0 in /  0.0 mm
01:15 39.4 °F /  4.1 °C 29.7 °F /  -1.3 °C 30.3 in /  1024.9 hPa North 2 mph /  3.2 km/h 3 mph /  4.8 km/h 68 % 0 in /  0.0 mm
01:25 39 °F /  3.9 °C 29.3 °F /  -1.5 °C 30.3 in /  1026.0 hPa North 1 mph /  1.6 km/h 3 mph /  4.8 km/h 68 % 0 in /  0.0 mm
01:35 38.8 °F /  3.8 °C 29.1 °F /  -1.6 °C 30.3 in /  1026.0 hPa North 1 mph /  1.6 km/h 1 mph /  1.6 km/h 68 % 0 in /  0.0 mm
01:45 38.8 °F /  3.8 °C 29.1 °F /  -1.6 °C 30.3 in /  1024.9 hPa NNE 2 mph /  3.2 km/h 3 mph /  4.8 km/h 68 % 0 in /  0.0 mm
01:55 39.4 °F /  4.1 °C 29.7 °F /  -1.3 °C 30.3 in /  1026.0 hPa NE 2 mph /  3.2 km/h 3 mph /  4.8 km/h 68 % 0 in /  0.0 mm
02:05 39.9 °F /  4.4 °C 30.2 °F /  -1.0 °C 30.3 in /  1026.0 hPa NNE 1 mph /  1.6 km/h 4 mph /  6.4 km/h 68 % 0 in /  0.0 mm
02:15 40.5 °F /  4.7 °C 30.7 °F /  -0.7 °C 30.3 in /  1026.0 hPa North 1 mph /  1.6 km/h 2 mph /  3.2 km/h 68 % 0 in /  0.0 mm
02:25 41 °F /  5.0 °C 30.9 °F /  -0.6 °C 30.3 in /  1026.0 hPa NNE 3 mph /  4.8 km/h 5 mph /  8.0 km/h 67 % 0 in /  0.0 mm
02:35 42.1 °F /  5.6 °C 31.8 °F /  -0.1 °C 30.3 in /  1026.0 hPa Calm   2 mph /  3.2 km/h 67 % 0 in /  0.0 mm
02:45 42.8 °F /  6.0 °C 32.5 °F /  0.3 °C 30.3 in /  1026.0 hPa NE 1 mph /  1.6 km/h 2 mph /  3.2 km/h 67 % 0 in /  0.0 mm
02:55 43.3 °F /  6.3 °C 32.7 °F /  0.4 °C 30.3 in /  1026.0 hPa NE 1 mph /  1.6 km/h 2 mph /  3.2 km/h 66 % 0 in /  0.0 mm
03:05 44.1 °F /  6.7 °C 33.1 °F /  0.6 °C 30.3 in /  1026.0 hPa NNE 2 mph /  3.2 km/h 3 mph /  4.8 km/h 65 % 0 in /  0.0 mm
03:15 43.7 °F /  6.5 °C 32.4 °F /  0.2 °C 30.3 in /  1027.0 hPa NNE 3 mph /  4.8 km/h 6 mph /  9.7 km/h 64 % 0 in /  0.0 mm
03:25 44.1 °F /  6.7 °C 32.7 °F /  0.4 °C 30.3 in /  1026.0 hPa NNE 1 mph /  1.6 km/h 5 mph /  8.0 km/h 64 % 0 in /  0.0 mm
03:35 44.8 °F /  7.1 °C 33.3 °F /  0.7 °C 30.3 in /  1026.0 hPa NNE 2 mph /  3.2 km/h 6 mph /  9.7 km/h 64 % 0 in /  0.0 mm
03:45 45 °F /  7.2 °C 33.1 °F /  0.6 °C 30.3 in /  1026.0 hPa NE 3 mph /  4.8 km/h 3 mph /  4.8 km/h 63 % 0 in /  0.0 mm
03:55 46 °F /  7.8 °C 34.2 °F /  1.2 °C 30.3 in /  1027.0 hPa NE 2 mph /  3.2 km/h 4 mph /  6.4 km/h 63 % 0 in /  0.0 mm
04:10 46.4 °F /  8.0 °C 34.2 °F /  1.2 °C 30.3 in /  1027.0 hPa NE 3 mph /  4.8 km/h 7 mph /  11.3 km/h 62 % 0 in /  0.0 mm
04:20 46.9 °F /  8.3 °C 34.5 °F /  1.4 °C 30.3 in /  1027.0 hPa NNE 3 mph /  4.8 km/h 3 mph /  4.8 km/h 62 % 0 in /  0.0 mm
04:30 47.7 °F /  8.7 °C 34.9 °F /  1.6 °C 30.3 in /  1027.0 hPa NNE 2 mph /  3.2 km/h 3 mph /  4.8 km/h 61 % 0 in /  0.0 mm
10:38 48 °F /  8.9 °C 35.2 °F /  1.8 °C 30.3 in /  1027.0 hPa NNW 3.5 mph /  5.6 km/h 3.5 mph /  5.6 km/h 61 % 0 in /  0.0 mm
10:43 48.4 °F /  9.1 °C 35.4 °F /  1.9 °C 30.3 in /  1027.0 hPa NE 3.5 mph /  5.6 km/h 3.5 mph /  5.6 km/h 61 % 0 in /  0.0 mm
10:48 48 °F /  8.9 °C 34.9 °F /  1.6 °C 30.3 in /  1027.0 hPa ENE 4.6 mph /  7.4 km/h 4.6 mph /  7.4 km/h 60 % 0 in /  0.0 mm
10:53 48.7 °F /  9.3 °C 35.4 °F /  1.9 °C 30.3 in /  1027.0 hPa West 2.3 mph /  3.7 km/h 2.3 mph /  3.7 km/h 60 % 0 in /  0.0 mm
10:58 49.1 °F /  9.5 °C 35.8 °F /  2.1 °C 30.3 in /  1027.0 hPa NE 2.3 mph /  3.7 km/h 2.3 mph /  3.7 km/h 60 % 0 in /  0.0 mm
11:03 49.6 °F /  9.8 °C 36.3 °F /  2.4 °C 30.3 in /  1027.0 hPa NNE 3.8 mph /  6.1 km/h 3.8 mph /  6.1 km/h 60 % 0 in /  0.0 mm
11:08 49.3 °F /  9.6 °C 35.4 °F /  1.9 °C 30.3 in /  1027.0 hPa NNE 2.3 mph /  3.7 km/h 2.3 mph /  3.7 km/h 59 % 0 in /  0.0 mm
11:13 49.3 °F /  9.6 °C 35.4 °F /  1.9 °C 30.3 in /  1027.0 hPa NE 3.5 mph /  5.6 km/h 3.5 mph /  5.6 km/h 59 % 0 in /  0.0 mm
11:18 49.6 °F /  9.8 °C 35.4 °F /  1.9 °C 30.3 in /  1027.0 hPa ENE 2.6 mph /  4.2 km/h 2.6 mph /  4.2 km/h 58 % 0 in /  0.0 mm
11:23 49.6 °F /  9.8 °C 35.4 °F /  1.9 °C 30.3 in /  1027.0 hPa ESE 2.3 mph /  3.7 km/h 2.3 mph /  3.7 km/h 58 % 0 in /  0.0 mm
11:28 50.2 °F /  10.1 °C 36 °F /  2.2 °C 30.3 in /  1027.0 hPa NNE 2.4 mph /  3.9 km/h 2.4 mph /  3.9 km/h 58 % 0 in /  0.0 mm
11:33 51.1 °F /  10.6 °C 36.9 °F /  2.7 °C 30.3 in /  1027.0 hPa NNE 1.4 mph /  2.3 km/h 1.4 mph /  2.3 km/h 58 % 0 in /  0.0 mm
11:38 51.4 °F /  10.8 °C 37 °F /  2.8 °C 30.3 in /  1027.0 hPa NNE 2.3 mph /  3.7 km/h 2.3 mph /  3.7 km/h 58 % 0 in /  0.0 mm
11:43 51.3 °F /  10.7 °C 36.5 °F /  2.5 °C 30.3 in /  1027.0 hPa NNE 2.3 mph /  3.7 km/h 2.3 mph /  3.7 km/h 57 % 0 in /  0.0 mm
11:48 51.4 °F /  10.8 °C 36.7 °F /  2.6 °C 30.3 in /  1027.0 hPa ESE 3.5 mph /  5.6 km/h 3.5 mph /  5.6 km/h 57 % 0 in /  0.0 mm
11:53 52.2 °F /  11.2 °C 37.4 °F /  3.0 °C 30.3 in /  1027.0 hPa East 2.9 mph /  4.7 km/h 2.9 mph /  4.7 km/h 57 % 0 in /  0.0 mm
11:58 52.3 °F /  11.3 °C 37.6 °F /  3.1 °C 30.3 in /  1027.0 hPa NE 3.5 mph /  5.6 km/h 3.5 mph /  5.6 km/h 57 % 0 in /  0.0 mm
12:03 52.5 °F /  11.4 °C 37.8 °F /  3.2 °C 30.3 in /  1027.0 hPa NNE 2.6 mph /  4.2 km/h 2.6 mph /  4.2 km/h 57 % 0 in /  0.0 mm
12:08 53.1 °F /  11.7 °C 38.1 °F /  3.4 °C 30.3 in /  1026.0 hPa NNE 2.3 mph /  3.7 km/h 2.3 mph /  3.7 km/h 57 % 0 in /  0.0 mm
12:13 53.1 °F /  11.7 °C 37.8 °F /  3.2 °C 30.3 in /  1026.0 hPa NE 2.3 mph /  3.7 km/h 2.3 mph /  3.7 km/h 56 % 0 in /  0.0 mm
12:14 53.1 °F /  11.7 °C 37.8 °F /  3.2 °C 30.3 in /  1026.0 hPa NE 2.3 mph /  3.7 km/h 2.3 mph /  3.7 km/h 56 % 0 in /  0.0 mm
12:19 53.2 °F /  11.8 °C 37.9 °F /  3.3 °C 30.3 in /  1026.0 hPa SSE 2.3 mph /  3.7 km/h 2.3 mph /  3.7 km/h 56 % 0 in /  0.0 mm
12:24 53.8 °F /  12.1 °C 38.5 °F /  3.6 °C 30.3 in /  1026.0 hPa West 1.2 mph /  1.9 km/h 1.2 mph /  1.9 km/h 56 % 0 in /  0.0 mm
12:29 54.3 °F /  12.4 °C 38.8 °F /  3.8 °C 30.3 in /  1026.0 hPa NE 2.3 mph /  3.7 km/h 2.3 mph /  3.7 km/h 56 % 0 in /  0.0 mm
12:34 54.7 °F /  12.6 °C 39.4 °F /  4.1 °C 30.3 in /  1026.0 hPa NNE 2.3 mph /  3.7 km/h 2.3 mph /  3.7 km/h 56 % 0 in /  0.0 mm
12:39 54.9 °F /  12.7 °C 39.6 °F /  4.2 °C 30.3 in /  1026.0 hPa ENE 2.4 mph /  3.9 km/h 2.4 mph /  3.9 km/h 56 % 0 in /  0.0 mm
12:44 54.7 °F /  12.6 °C 38.5 °F /  3.6 °C 30.3 in /  1026.0 hPa ESE 4.6 mph /  7.4 km/h 4.6 mph /  7.4 km/h 54 % 0 in /  0.0 mm
12:49 54.9 °F /  12.7 °C 39 °F /  3.9 °C 30.3 in /  1026.0 hPa ENE 2.3 mph /  3.7 km/h 2.3 mph /  3.7 km/h 55 % 0 in /  0.0 mm
12:54 55.2 °F /  12.9 °C 39.4 °F /  4.1 °C 30.3 in /  1026.0 hPa East 2.3 mph /  3.7 km/h 2.3 mph /  3.7 km/h 55 % 0 in /  0.0 mm
12:59 55.4 °F /  13.0 °C 39.6 °F /  4.2 °C 30.3 in /  1026.0 hPa ENE 3.5 mph /  5.6 km/h 3.5 mph /  5.6 km/h 55 % 0 in /  0.0 mm
13:04 55.8 °F /  13.2 °C 39.7 °F /  4.3 °C 30.3 in /  1026.0 hPa ENE 3.5 mph /  5.6 km/h 3.5 mph /  5.6 km/h 55 % 0 in /  0.0 mm
13:09 55.8 °F /  13.2 °C 39.4 °F /  4.1 °C 30.3 in /  1026.0 hPa ENE 4.6 mph /  7.4 km/h 4.6 mph /  7.4 km/h 54 % 0 in /  0.0 mm
13:14 55.9 °F /  13.3 °C 39.6 °F /  4.2 °C 30.3 in /  1026.0 hPa NE 4.6 mph /  7.4 km/h 4.6 mph /  7.4 km/h 54 % 0 in /  0.0 mm
13:19 56.1 °F /  13.4 °C 39.7 °F /  4.3 °C 30.3 in /  1026.0 hPa East 3.5 mph /  5.6 km/h 3.5 mph /  5.6 km/h 54 % 0 in /  0.0 mm
13:24 56.5 °F /  13.6 °C 39.6 °F /  4.2 °C 30.3 in /  1026.0 hPa SE 3.5 mph /  5.6 km/h 3.5 mph /  5.6 km/h 53 % 0 in /  0.0 mm
13:29 57 °F /  13.9 °C 39.9 °F /  4.4 °C 30.3 in /  1026.0 hPa ENE 3.1 mph /  5.0 km/h 3.1 mph /  5.0 km/h 53 % 0 in /  0.0 mm
13:34 57.2 °F /  14.0 °C 40.3 °F /  4.6 °C 30.3 in /  1026.0 hPa ESE 2.3 mph /  3.7 km/h 2.4 mph /  3.9 km/h 53 % 0 in /  0.0 mm
13:39 57.4 °F /  14.1 °C 40.5 °F /  4.7 °C 30.3 in /  1024.9 hPa NNE 3.5 mph /  5.6 km/h 3.5 mph /  5.6 km/h 53 % 0 in /  0.0 mm
13:44 57.6 °F /  14.2 °C 40.5 °F /  4.7 °C 30.3 in /  1024.9 hPa NE 2.3 mph /  3.7 km/h 2.3 mph /  3.7 km/h 53 % 0 in /  0.0 mm
13:49 57.7 °F /  14.3 °C 40.6 °F /  4.8 °C 30.3 in /  1024.9 hPa NE 4.6 mph /  7.4 km/h 4.6 mph /  7.4 km/h 53 % 0 in /  0.0 mm
13:54 57.7 °F /  14.3 °C 40.6 °F /  4.8 °C 30.2 in /  1023.9 hPa ENE 4.6 mph /  7.4 km/h 4.6 mph /  7.4 km/h 53 % 0 in /  0.0 mm
13:59 57.7 °F /  14.3 °C 40.3 °F /  4.6 °C 30.2 in /  1023.9 hPa NNE 2.3 mph /  3.7 km/h 2.3 mph /  3.7 km/h 52 % 0 in /  0.0 mm
14:04 58.1 °F /  14.5 °C 40.6 °F /  4.8 °C 30.2 in /  1023.9 hPa North 2.6 mph /  4.2 km/h 2.6 mph /  4.2 km/h 52 % 0 in /  0.0 mm
14:09 58.5 °F /  14.7 °C 40.8 °F /  4.9 °C 30.3 in /  1024.9 hPa East 2.3 mph /  3.7 km/h 2.3 mph /  3.7 km/h 52 % 0 in /  0.0 mm
14:14 58.6 °F /  14.8 °C 41.2 °F /  5.1 °C 30.3 in /  1024.9 hPa East 2.3 mph /  3.7 km/h 2.3 mph /  3.7 km/h 52 % 0 in /  0.0 mm
14:19 58.5 °F /  14.7 °C 40.5 °F /  4.7 °C 30.3 in /  1024.9 hPa ENE 2.3 mph /  3.7 km/h 2.4 mph /  3.9 km/h 51 % 0 in /  0.0 mm
14:24 58.6 °F /  14.8 °C 41.2 °F /  5.1 °C 30.3 in /  1024.9 hPa ENE 2.3 mph /  3.7 km/h 2.3 mph /  3.7 km/h 52 % 0 in /  0.0 mm
14:29 58.6 °F /  14.8 °C 41.2 °F /  5.1 °C 30.3 in /  1024.9 hPa NNE 2.3 mph /  3.7 km/h 2.3 mph /  3.7 km/h 52 % 0 in /  0.0 mm
14:34 58.6 °F /  14.8 °C 41.2 °F /  5.1 °C 30.3 in /  1024.9 hPa WSW 3.5 mph /  5.6 km/h 3.5 mph /  5.6 km/h 52 % 0 in /  0.0 mm
14:39 58.8 °F /  14.9 °C 40.6 °F /  4.8 °C 30.3 in /  1024.9 hPa West 3.8 mph /  6.1 km/h 3.8 mph /  6.1 km/h 51 % 0 in /  0.0 mm
14:44 59 °F /  15.0 °C 40.8 °F /  4.9 °C 30.3 in /  1024.9 hPa WNW 4.9 mph /  7.9 km/h 4.9 mph /  7.9 km/h 51 % 0 in /  0.0 mm
14:49 59 °F /  15.0 °C 40.8 °F /  4.9 °C 30.3 in /  1024.9 hPa SW 4.6 mph /  7.4 km/h 4.6 mph /  7.4 km/h 51 % 0 in /  0.0 mm
14:54 58.8 °F /  14.9 °C 40.3 °F /  4.6 °C 30.3 in /  1024.9 hPa West 6.9 mph /  11.1 km/h 6.9 mph /  11.1 km/h 50 % 0 in /  0.0 mm
14:59 58.6 °F /  14.8 °C 39.6 °F /  4.2 °C 30.3 in /  1024.9 hPa WNW 5.8 mph /  9.3 km/h 5.8 mph /  9.3 km/h 49 % 0 in /  0.0 mm
15:04 58.5 °F /  14.7 °C 39.9 °F /  4.4 °C 30.3 in /  1024.9 hPa WNW 5.9 mph /  9.5 km/h 5.9 mph /  9.5 km/h 50 % 0 in /  0.0 mm
15:09 58.3 °F /  14.6 °C 38.7 °F /  3.7 °C 30.3 in /  1024.9 hPa NNE 6.9 mph /  11.1 km/h 6.9 mph /  11.1 km/h 48 % 0 in /  0.0 mm
15:14 58.1 °F /  14.5 °C 37.9 °F /  3.3 °C 30.3 in /  1024.9 hPa NW 6.9 mph /  11.1 km/h 6.9 mph /  11.1 km/h 47 % 0 in /  0.0 mm
15:19 57.9 °F /  14.4 °C 37.8 °F /  3.2 °C 30.3 in /  1024.9 hPa WSW 3.5 mph /  5.6 km/h 3.5 mph /  5.6 km/h 47 % 0 in /  0.0 mm
15:24 57.7 °F /  14.3 °C 37.6 °F /  3.1 °C 30.3 in /  1024.9 hPa WNW 6.9 mph /  11.1 km/h 6.9 mph /  11.1 km/h 47 % 0 in /  0.0 mm
15:29 57.7 °F /  14.3 °C 37.6 °F /  3.1 °C 30.3 in /  1024.9 hPa WSW 2.3 mph /  3.7 km/h 2.3 mph /  3.7 km/h 47 % 0 in /  0.0 mm
15:34 57.6 °F /  14.2 °C 37.6 °F /  3.1 °C 30.3 in /  1024.9 hPa West 6.9 mph /  11.1 km/h 6.9 mph /  11.1 km/h 47 % 0 in /  0.0 mm
15:39 57.4 °F /  14.1 °C 37.2 °F /  2.9 °C 30.3 in /  1024.9 hPa West 4.3 mph /  6.9 km/h 4.3 mph /  6.9 km/h 47 % 0 in /  0.0 mm
15:44 57 °F /  13.9 °C 37 °F /  2.8 °C 30.3 in /  1024.9 hPa WSW 3.5 mph /  5.6 km/h 3.5 mph /  5.6 km/h 47 % 0 in /  0.0 mm
15:49 56.8 °F /  13.8 °C 36.9 °F /  2.7 °C 30.3 in /  1024.9 hPa West 2.3 mph /  3.7 km/h 2.3 mph /  3.7 km/h 47 % 0 in /  0.0 mm
15:54 56.8 °F /  13.8 °C 36.9 °F /  2.7 °C 30.3 in /  1024.9 hPa West 2.3 mph /  3.7 km/h 2.4 mph /  3.9 km/h 47 % 0 in /  0.0 mm
15:59 56.7 °F /  13.7 °C 36.7 °F /  2.6 °C 30.3 in /  1024.9 hPa SW 4.6 mph /  7.4 km/h 4.6 mph /  7.4 km/h 47 % 0 in /  0.0 mm
16:04 56.7 °F /  13.7 °C 36.7 °F /  2.6 °C 30.3 in /  1026.0 hPa WSW 5.8 mph /  9.3 km/h 5.8 mph /  9.3 km/h 47 % 0 in /  0.0 mm
16:09 56.7 °F /  13.7 °C 36.7 °F /  2.6 °C 30.3 in /  1026.0 hPa West 2.9 mph /  4.7 km/h   47 % 0 in /  0.0 mm
16:14 56.5 °F /  13.6 °C 36.5 °F /  2.5 °C 30.3 in /  1026.0 hPa North 2.3 mph /  3.7 km/h 2.3 mph /  3.7 km/h 47 % 0 in /  0.0 mm
16:19 56.3 °F /  13.5 °C 36.3 °F /  2.4 °C 30.3 in /  1026.0 hPa WNW 2.6 mph /  4.2 km/h 2.6 mph /  4.2 km/h 47 % 0 in /  0.0 mm
16:24 56.3 °F /  13.5 °C 36.3 °F /  2.4 °C 30.3 in /  1026.0 hPa NNW 2.3 mph /  3.7 km/h 2.3 mph /  3.7 km/h 47 % 0 in /  0.0 mm
16:29 56.1 °F /  13.4 °C 36.1 °F /  2.3 °C 30.3 in /  1026.0 hPa West 3.5 mph /  5.6 km/h 3.5 mph /  5.6 km/h 47 % 0 in /  0.0 mm
16:34 55.9 °F /  13.3 °C 36 °F /  2.2 °C 30.3 in /  1026.0 hPa WSW 2.3 mph /  3.7 km/h 2.3 mph /  3.7 km/h 47 % 0 in /  0.0 mm
16:39 55.8 °F /  13.2 °C 35.8 °F /  2.1 °C 30.3 in /  1026.0 hPa SW 2.6 mph /  4.2 km/h 2.6 mph /  4.2 km/h 47 % 0 in /  0.0 mm
16:44 55.8 °F /  13.2 °C 35.8 °F /  2.1 °C 30.3 in /  1026.0 hPa West 1.6 mph /  2.6 km/h   47 % 0 in /  0.0 mm
16:49 55.6 °F /  13.1 °C 35.8 °F /  2.1 °C 30.3 in /  1026.0 hPa WSW 1.2 mph /  1.9 km/h   47 % 0 in /  0.0 mm
16:54 55.4 °F /  13.0 °C 35.4 °F /  1.9 °C 30.3 in /  1026.0 hPa SW 2.6 mph /  4.2 km/h 2.6 mph /  4.2 km/h 47 % 0 in /  0.0 mm
16:59 55 °F /  12.8 °C 35.2 °F /  1.8 °C 30.3 in /  1026.0 hPa WSW 2.4 mph /  3.9 km/h 2.4 mph /  3.9 km/h 47 % 0 in /  0.0 mm
17:04 54.7 °F /  12.6 °C 35.4 °F /  1.9 °C 30.3 in /  1024.9 hPa WSW 2.4 mph /  3.9 km/h 2.4 mph /  3.9 km/h 48 % 0 in /  0.0 mm
17:09 54.3 °F /  12.4 °C 35.1 °F /  1.7 °C 30.3 in /  1024.9 hPa West 2.3 mph /  3.7 km/h 2.3 mph /  3.7 km/h 48 % 0 in /  0.0 mm
17:14 54.1 °F /  12.3 °C 34.9 °F /  1.6 °C 30.3 in /  1024.9 hPa WSW 2.2 mph /  3.5 km/h 2.2 mph /  3.5 km/h 48 % 0 in /  0.0 mm
17:19 54.1 °F /  12.3 °C 34.9 °F /  1.6 °C 30.3 in /  1026.0 hPa SW 1.2 mph /  1.9 km/h   48 % 0 in /  0.0 mm
17:24 54 °F /  12.2 °C 34.7 °F /  1.5 °C 30.3 in /  1026.0 hPa SW 1.6 mph /  2.6 km/h   48 % 0 in /  0.0 mm
17:29 53.6 °F /  12.0 °C 34.3 °F /  1.3 °C 30.3 in /  1026.0 hPa SW 2.3 mph /  3.7 km/h 2.3 mph /  3.7 km/h 48 % 0 in /  0.0 mm
17:34 53.2 °F /  11.8 °C 34 °F /  1.1 °C 30.3 in /  1024.9 hPa SW 2.4 mph /  3.9 km/h 2.4 mph /  3.9 km/h 48 % 0 in /  0.0 mm
17:39 53.1 °F /  11.7 °C 34.3 °F /  1.3 °C 30.3 in /  1024.9 hPa WSW 1.2 mph /  1.9 km/h 1.4 mph /  2.3 km/h 49 % 0 in /  0.0 mm
17:44 53.1 °F /  11.7 °C 34.3 °F /  1.3 °C 30.3 in /  1024.9 hPa SW 2.3 mph /  3.7 km/h 2.4 mph /  3.9 km/h 49 % 0 in /  0.0 mm
17:49 53.1 °F /  11.7 °C 34.3 °F /  1.3 °C 30.3 in /  1024.9 hPa WSW 2.3 mph /  3.7 km/h 2.3 mph /  3.7 km/h 49 % 0 in /  0.0 mm
17:54 53.1 °F /  11.7 °C 34.3 °F /  1.3 °C 30.3 in /  1024.9 hPa West 2.3 mph /  3.7 km/h 2.3 mph /  3.7 km/h 49 % 0 in /  0.0 mm
17:59 53.1 °F /  11.7 °C 34.3 °F /  1.3 °C 30.3 in /  1024.9 hPa WSW 2.3 mph /  3.7 km/h 2.3 mph /  3.7 km/h 49 % 0 in /  0.0 mm
18:04 53.1 °F /  11.7 °C 34 °F /  1.1 °C 30.3 in /  1024.9 hPa West 2.3 mph /  3.7 km/h 2.3 mph /  3.7 km/h 48 % 0 in /  0.0 mm
18:09 53.1 °F /  11.7 °C 34 °F /  1.1 °C 30.3 in /  1024.9 hPa West 1.2 mph /  1.9 km/h 1.2 mph /  1.9 km/h 48 % 0 in /  0.0 mm
18:14 52.9 °F /  11.6 °C 33.6 °F /  0.9 °C 30.3 in /  1024.9 hPa Calm     48 % 0 in /  0.0 mm
18:19 52.7 °F /  11.5 °C 34.2 °F /  1.2 °C 30.3 in /  1024.9 hPa Calm     49 % 0 in /  0.0 mm
18:24 52.5 °F /  11.4 °C 33.4 °F /  0.8 °C 30.3 in /  1024.9 hPa West 1.2 mph /  1.9 km/h 1.2 mph /  1.9 km/h 48 % 0 in /  0.0 mm
18:29 52.3 °F /  11.3 °C 33.6 °F /  0.9 °C 30.3 in /  1024.9 hPa Calm     49 % 0 in /  0.0 mm
18:34 52.2 °F /  11.2 °C 33.6 °F /  0.9 °C 30.3 in /  1026.0 hPa Calm     49 % 0 in /  0.0 mm
18:39 51.8 °F /  11.0 °C 33.3 °F /  0.7 °C 30.3 in /  1026.0 hPa Calm     49 % 0 in /  0.0 mm
18:40 51.8 °F /  11.0 °C 33.3 °F /  0.7 °C 30.3 in /  1026.0 hPa Calm     49 % 0 in /  0.0 mm
18:45 51.6 °F /  10.9 °C 33.1 °F /  0.6 °C 30.3 in /  1026.0 hPa Calm     49 % 0 in /  0.0 mm
18:50 51.6 °F /  10.9 °C 33.1 °F /  0.6 °C 30.3 in /  1026.0 hPa NE 1.6 mph /  2.6 km/h 1.6 mph /  2.6 km/h 49 % 0 in /  0.0 mm
18:55 51.8 °F /  11.0 °C 33.6 °F /  0.9 °C 30.3 in /  1026.0 hPa NE 1 mph /  1.6 km/h 2 mph /  3.2 km/h 50 % 0 in /  0.0 mm
19:00 52 °F /  11.1 °C 33.4 °F /  0.8 °C 30.3 in /  1026.0 hPa ENE 1.2 mph /  1.9 km/h   49 % 0 in /  0.0 mm
19:05 52 °F /  11.1 °C 34 °F /  1.1 °C 30.3 in /  1026.0 hPa Calm     50 % 0 in /  0.0 mm
19:10 51.6 °F /  10.9 °C 33.6 °F /  0.9 °C 30.3 in /  1026.0 hPa Calm     50 % 0 in /  0.0 mm
19:15 51.3 °F /  10.7 °C 33.3 °F /  0.7 °C 30.3 in /  1026.0 hPa West 2.3 mph /  3.7 km/h 2.3 mph /  3.7 km/h 50 % 0 in /  0.0 mm
19:20 51.3 °F /  10.7 °C 33.3 °F /  0.7 °C 30.3 in /  1026.0 hPa Calm     50 % 0 in /  0.0 mm
19:25 51.1 °F /  10.6 °C 33.1 °F /  0.6 °C 30.3 in /  1026.0 hPa West 1.2 mph /  1.9 km/h 1.2 mph /  1.9 km/h 50 % 0 in /  0.0 mm
19:30 51.1 °F /  10.6 °C 33.1 °F /  0.6 °C 30.3 in /  1026.0 hPa Calm     50 % 0 in /  0.0 mm
19:35 51.1 °F /  10.6 °C 33.6 °F /  0.9 °C 30.3 in /  1026.0 hPa NE 1.4 mph /  2.3 km/h   51 % 0 in /  0.0 mm
19:40 50.7 °F /  10.4 °C 33.3 °F /  0.7 °C 30.3 in /  1026.0 hPa ENE 2.3 mph /  3.7 km/h 2.3 mph /  3.7 km/h 51 % 0 in /  0.0 mm
19:45 50.5 °F /  10.3 °C 33.1 °F /  0.6 °C 30.3 in /  1026.0 hPa Calm     51 % 0 in /  0.0 mm
19:50 50.7 °F /  10.4 °C 33.3 °F /  0.7 °C 30.3 in /  1026.0 hPa Calm     51 % 0 in /  0.0 mm
19:55 50.7 °F /  10.4 °C 33.3 °F /  0.7 °C 30.3 in /  1026.0 hPa Calm     51 % 0 in /  0.0 mm
20:00 50.7 °F /  10.4 °C 33.3 °F /  0.7 °C 30.3 in /  1026.0 hPa Calm     51 % 0 in /  0.0 mm
20:05 50.5 °F /  10.3 °C 33.1 °F /  0.6 °C 30.3 in /  1026.0 hPa Calm     51 % 0 in /  0.0 mm
20:10 50 °F /  10.0 °C 32.5 °F /  0.3 °C 30.3 in /  1026.0 hPa ENE 0.9 mph /  1.4 km/h   51 % 0 in /  0.0 mm
20:15 50 °F /  10.0 °C 32.5 °F /  0.3 °C 30.3 in /  1026.0 hPa ENE 1.2 mph /  1.9 km/h 1.2 mph /  1.9 km/h 51 % 0 in /  0.0 mm
20:20 50 °F /  10.0 °C 32.5 °F /  0.3 °C 30.3 in /  1026.0 hPa Calm     51 % 0 in /  0.0 mm
20:25 50 °F /  10.0 °C 33.1 °F /  0.6 °C 30.3 in /  1026.0 hPa Calm     52 % 0 in /  0.0 mm
20:30 49.8 °F /  9.9 °C 32.9 °F /  0.5 °C 30.3 in /  1026.0 hPa ENE 1.2 mph /  1.9 km/h 1.2 mph /  1.9 km/h 52 % 0 in /  0.0 mm
20:35 49.8 °F /  9.9 °C 32.9 °F /  0.5 °C 30.3 in /  1026.0 hPa Calm     52 % 0 in /  0.0 mm
20:40 49.8 °F /  9.9 °C 32.9 °F /  0.5 °C 30.3 in /  1026.0 hPa WSW 3.5 mph /  5.6 km/h 3.5 mph /  5.6 km/h 52 % 0 in /  0.0 mm
20:45 49.6 °F /  9.8 °C 32.7 °F /  0.4 °C 30.3 in /  1026.0 hPa WSW 2.3 mph /  3.7 km/h 2.3 mph /  3.7 km/h 52 % 0 in /  0.0 mm
20:50 49.8 °F /  9.9 °C 32.9 °F /  0.5 °C 30.3 in /  1026.0 hPa WSW 2.4 mph /  3.9 km/h 2.4 mph /  3.9 km/h 52 % 0 in /  0.0 mm
20:55 49.8 °F /  9.9 °C 32.9 °F /  0.5 °C 30.3 in /  1026.0 hPa West 2.4 mph /  3.9 km/h 2.4 mph /  3.9 km/h 52 % 0 in /  0.0 mm
21:00 49.6 °F /  9.8 °C 32.7 °F /  0.4 °C 30.3 in /  1026.0 hPa West 2.3 mph /  3.7 km/h 2.3 mph /  3.7 km/h 52 % 0 in /  0.0 mm
21:05 49.5 °F /  9.7 °C 32.5 °F /  0.3 °C 30.3 in /  1026.0 hPa West 1.2 mph /  1.9 km/h 1.2 mph /  1.9 km/h 52 % 0 in /  0.0 mm
21:10 49.6 °F /  9.8 °C 32.7 °F /  0.4 °C 30.3 in /  1026.0 hPa West 1.2 mph /  1.9 km/h 1.2 mph /  1.9 km/h 52 % 0 in /  0.0 mm
21:15 49.8 °F /  9.9 °C 32.9 °F /  0.5 °C 30.3 in /  1026.0 hPa West 1.2 mph /  1.9 km/h 1.2 mph /  1.9 km/h 52 % 0 in /  0.0 mm
21:20 49.8 °F /  9.9 °C 32.9 °F /  0.5 °C 30.3 in /  1026.0 hPa Calm     52 % 0 in /  0.0 mm
21:25 49.1 °F /  9.5 °C 32.2 °F /  0.1 °C 30.3 in /  1026.0 hPa ENE 1.6 mph /  2.6 km/h 1.6 mph /  2.6 km/h 52 % 0 in /  0.0 mm
21:30 48.7 °F /  9.3 °C 32.4 °F /  0.2 °C 30.3 in /  1026.0 hPa ENE 1.2 mph /  1.9 km/h 1.2 mph /  1.9 km/h 53 % 0 in /  0.0 mm
21:35 48.4 °F /  9.1 °C 32 °F /  0.0 °C 30.3 in /  1026.0 hPa East 1.2 mph /  1.9 km/h 1.2 mph /  1.9 km/h 53 % 0 in /  0.0 mm
21:40 48.2 °F /  9.0 °C 32.4 °F /  0.2 °C 30.3 in /  1026.0 hPa Calm     54 % 0 in /  0.0 mm
21:45 48 °F /  8.9 °C 32.2 °F /  0.1 °C 30.3 in /  1026.0 hPa Calm     54 % 0 in /  0.0 mm
21:50 47.7 °F /  8.7 °C 32.4 °F /  0.2 °C 30.3 in /  1024.9 hPa East 1.2 mph /  1.9 km/h 1.2 mph /  1.9 km/h 55 % 0 in /  0.0 mm
21:55 47.5 °F /  8.6 °C 32.2 °F /  0.1 °C 30.3 in /  1024.9 hPa ENE 2.3 mph /  3.7 km/h 2.3 mph /  3.7 km/h 55 % 0 in /  0.0 mm
22:00 47.3 °F /  8.5 °C 32.4 °F /  0.2 °C 30.3 in /  1024.9 hPa Calm     56 % 0 in /  0.0 mm
22:05 47.3 °F /  8.5 °C 32.4 °F /  0.2 °C 30.3 in /  1026.0 hPa Calm     56 % 0 in /  0.0 mm
22:10 47.3 °F /  8.5 °C 32.4 °F /  0.2 °C 30.3 in /  1026.0 hPa Calm     56 % 0 in /  0.0 mm
22:15 47.3 °F /  8.5 °C 32.4 °F /  0.2 °C 30.3 in /  1026.0 hPa NE 1.4 mph /  2.3 km/h 1.4 mph /  2.3 km/h 56 % 0 in /  0.0 mm
22:20 47.1 °F /  8.4 °C 32.2 °F /  0.1 °C 30.3 in /  1026.0 hPa NE 1.4 mph /  2.3 km/h   56 % 0 in /  0.0 mm
22:25 46.8 °F /  8.2 °C 32.4 °F /  0.2 °C 30.3 in /  1026.0 hPa Calm     57 % 0 in /  0.0 mm
22:30 46.8 °F /  8.2 °C 32.4 °F /  0.2 °C 30.3 in /  1026.0 hPa Calm     57 % 0 in /  0.0 mm
22:35 46.8 °F /  8.2 °C 32.4 °F /  0.2 °C 30.3 in /  1026.0 hPa WNW 1.2 mph /  1.9 km/h 1.4 mph /  2.3 km/h 57 % 0 in /  0.0 mm
22:40 46.9 °F /  8.3 °C 32.5 °F /  0.3 °C 30.3 in /  1026.0 hPa WNW 1.2 mph /  1.9 km/h   57 % 0 in /  0.0 mm
22:45 46.6 °F /  8.1 °C 32.2 °F /  0.1 °C 30.3 in /  1026.0 hPa NE 3.5 mph /  5.6 km/h 3.5 mph /  5.6 km/h 57 % 0 in /  0.0 mm
22:50 46 °F /  7.8 °C 32.2 °F /  0.1 °C 30.3 in /  1026.0 hPa NE 1.2 mph /  1.9 km/h   58 % 0 in /  0.0 mm
22:51 46.2 °F /  7.9 °C 32.2 °F /  0.1 °C 30.3 in /  1026.0 hPa NE 1.2 mph /  1.9 km/h 1.2 mph /  1.9 km/h 58 % 0 in /  0.0 mm
22:56 46.2 °F /  7.9 °C 32.2 °F /  0.1 °C 30.3 in /  1026.0 hPa NE 1.4 mph /  2.3 km/h 1.4 mph /  2.3 km/h 58 % 0 in /  0.0 mm
23:01 46.2 °F /  7.9 °C 32.2 °F /  0.1 °C 30.3 in /  1026.0 hPa NE 1.2 mph /  1.9 km/h   58 % 0 in /  0.0 mm
23:06 46 °F /  7.8 °C 32.2 °F /  0.1 °C 30.3 in /  1024.9 hPa WNW 2.3 mph /  3.7 km/h 2.3 mph /  3.7 km/h 58 % 0 in /  0.0 mm
23:11 45.9 °F /  7.7 °C 32.4 °F /  0.2 °C 30.3 in /  1024.9 hPa WNW 1.2 mph /  1.9 km/h   59 % 0 in /  0.0 mm
23:16 45.7 °F /  7.6 °C 32.2 °F /  0.1 °C 30.3 in /  1024.9 hPa West 1.4 mph /  2.3 km/h 1.4 mph /  2.3 km/h 59 % 0 in /  0.0 mm
23:21 45.5 °F /  7.5 °C 32 °F /  0.0 °C 30.3 in /  1026.0 hPa WSW 2.3 mph /  3.7 km/h 2.3 mph /  3.7 km/h 59 % 0 in /  0.0 mm
23:26 45 °F /  7.2 °C 31.5 °F /  -0.3 °C 30.3 in /  1026.0 hPa WSW 2.3 mph /  3.7 km/h 2.3 mph /  3.7 km/h 59 % 0 in /  0.0 mm
23:31 45 °F /  7.2 °C 31.8 °F /  -0.1 °C 30.3 in /  1026.0 hPa WSW 2.3 mph /  3.7 km/h 2.3 mph /  3.7 km/h 60 % 0 in /  0.0 mm
23:36 44.6 °F /  7.0 °C 31.6 °F /  -0.2 °C 30.3 in /  1026.0 hPa SW 1.2 mph /  1.9 km/h   60 % 0 in /  0.0 mm
23:41 44.6 °F /  7.0 °C 31.6 °F /  -0.2 °C 30.3 in /  1026.0 hPa SW 1.4 mph /  2.3 km/h 1.4 mph /  2.3 km/h 60 % 0 in /  0.0 mm
23:46 44.6 °F /  7.0 °C 31.6 °F /  -0.2 °C 30.3 in /  1026.0 hPa SW 2.3 mph /  3.7 km/h 2.3 mph /  3.7 km/h 60 % 0 in /  0.0 mm
23:51 44.8 °F /  7.1 °C 31.6 °F /  -0.2 °C 30.3 in /  1026.0 hPa West 1.2 mph /  1.9 km/h 1.2 mph /  1.9 km/h 60 % 0 in /  0.0 mm
23:56 45 °F /  7.2 °C 31.8 °F /  -0.1 °C 30.3 in /  1026.0 hPa West 1.2 mph /  1.9 km/h   60 % 0 in /  0.0 mm
Meteo Sesrovires
Elogis d' Weather Underground - 3.5 mb

Guio original per  Jim McMurry - jmcmurry@mwt.net Adaptat per a la plantilla per  Wim van der Kuil - Leuven-Template.eu

Trobareu la nostra informacio del temps tambe a:

Weather Underground

AWEKAS